| time (UTC) | temp C | wind direction | speed KPH | gust KPH | rain 1hr cm | rain 24hr cm | rain mn cm | humidity % | barometer mb |
| 20260510021021 | 23 | 303 | 0.0 | 0.0 | 0.00 | 0.00 | 0.00 | 100 | 1017.3 |
| 20260510020749 | 23 | 303 | 0.0 | 0.0 | 0.00 | 0.00 | 0.00 | 100 | 1017.2 |
| 20260510020521 | 23 | 303 | 0.0 | 0.0 | 0.00 | 0.00 | 0.00 | 100 | 1017.2 |
| 20260510020021 | 23 | 303 | 0.0 | 0.0 | 0.00 | 0.00 | 0.00 | 100 | 1017.2 |
| 20260510015521 | 23 | 303 | 0.0 | 0.0 | 0.00 | 0.00 | 0.00 | 100 | 1017.1 |
| 20260510015021 | 23 | 303 | 0.0 | 0.0 | 0.00 | 0.00 | 0.00 | 100 | 1017.0 |
| 20260510014616 | 23 | 303 | 0.0 | 0.0 | 0.00 | 0.00 | 0.00 | 100 | 1016.9 |
| 20260510014521 | 23 | 303 | 0.0 | 0.0 | 0.00 | 0.00 | 0.00 | 100 | 1016.9 |
| 20260510014052 | 24 | 303 | 0.0 | 0.0 | 0.00 | 0.00 | 0.00 | 100 | 1016.9 |
| 20260510014021 | 23 | 303 | 0.0 | 0.0 | 0.00 | 0.00 | 0.00 | 100 | 1016.9 |
| 20260510013616 | 24 | 303 | 0.0 | 0.0 | 0.00 | 0.00 | 0.00 | 100 | 1016.8 |
| 20260510013521 | 24 | 303 | 0.0 | 0.0 | 0.00 | 0.00 | 0.00 | 100 | 1016.9 |
| 20260510013021 | 24 | 303 | 0.0 | 0.0 | 0.00 | 0.00 | 0.00 | 100 | 1016.8 |
| 20260510012603 | 25 | 303 | 0.0 | 0.0 | 0.00 | 0.00 | 0.00 | 100 | 1016.8 |
| 20260510012521 | 24 | 303 | 0.0 | 0.0 | 0.00 | 0.00 | 0.00 | 100 | 1016.8 |
| 20260510012021 | 25 | 303 | 0.0 | 0.0 | 0.00 | 0.00 | 0.00 | 100 | 1016.8 |
| 20260510011831 | 25 | 303 | 0.0 | 0.0 | 0.00 | 0.00 | 0.00 | 100 | 1016.8 |
| 20260510011521 | 25 | 303 | 0.0 | 0.0 | 0.00 | 0.00 | 0.00 | 100 | 1016.8 |
| 20260510011319 | 25 | 303 | 0.0 | 0.0 | 0.00 | 0.00 | 0.00 | 100 | 1016.7 |
| 20260510011147 | 25 | 303 | 0.0 | 0.0 | 0.00 | 0.00 | 0.00 | 100 | 1016.7 |
| 20260510011021 | 25 | 303 | 0.0 | 0.0 | 0.00 | 0.00 | 0.00 | 100 | 1016.7 |
| 20260510010521 | 25 | 303 | 0.0 | 0.0 | 0.00 | 0.00 | 0.00 | 100 | 1016.7 |
| 20260510010153 | 26 | 303 | 0.0 | 0.0 | 0.00 | 0.00 | 0.00 | 100 | 1016.4 |
| 20260510010021 | 25 | 303 | 0.0 | 0.0 | 0.00 | 0.00 | 0.00 | 100 | 1016.6 |
| 20260510005619 | 26 | 303 | 0.0 | 1.6 | 0.00 | 0.00 | 0.00 | 100 | 1016.3 |
| 20260510005521 | 26 | 303 | 0.0 | 0.0 | 0.00 | 0.00 | 0.00 | 100 | 1016.5 |
| 20260510005500 | 26 | 315 | 0.0 | 6.4 | 0.00 | 0.00 | 0.00 | 100 | 1016.1 |
| 20260510005325 | 26 | 315 | 0.0 | 6.4 | 0.00 | 0.00 | 0.00 | 100 | 1016.1 |
| 20260510005021 | 26 | 303 | 0.0 | 0.0 | 0.00 | 0.00 | 0.00 | 100 | 1016.4 |
| 20260510004813 | 26 | 272 | 0.0 | 6.4 | 0.00 | 0.00 | 0.00 | 100 | 1016.0 |
| 20260510004521 | 26 | 303 | 0.0 | 1.6 | 0.00 | 0.00 | 0.00 | 100 | 1016.3 |
| 20260510004103 | 26 | 272 | 0.0 | 6.4 | 0.00 | 0.00 | 0.00 | 100 | 1016.0 |
| 20260510004021 | 26 | 315 | 0.0 | 6.4 | 0.00 | 0.00 | 0.00 | 100 | 1016.1 |
| 20260510003521 | 26 | 272 | 0.0 | 6.4 | 0.00 | 0.00 | 0.00 | 100 | 1016.0 |
| 20260510003445 | 27 | 246 | 4.8 | 6.4 | 0.00 | 0.00 | 0.00 | 100 | 1015.9 |
| 20260510003021 | 27 | 257 | 4.8 | 8.0 | 0.00 | 0.00 | 0.00 | 100 | 1015.9 |
| 20260510002521 | 27 | 246 | 4.8 | 6.4 | 0.00 | 0.00 | 0.00 | 100 | 1015.9 |
| 20260510002021 | 27 | 226 | 3.2 | 9.7 | 0.00 | 0.00 | 0.00 | 100 | 1015.8 |
| 20260510001521 | 27 | 254 | 4.8 | 8.0 | 0.00 | 0.00 | 0.00 | 100 | 1015.9 |
| 20260510001021 | 27 | 275 | 3.2 | 8.0 | 0.00 | 0.00 | 0.00 | 100 | 1015.9 |
| 20260510000521 | 27 | 277 | 3.2 | 6.4 | 0.00 | 0.00 | 0.00 | 100 | 1015.8 |
| 20260510000021 | 27 | 279 | 1.6 | 8.0 | 0.00 | 0.00 | 0.00 | 100 | 1015.8 |
| 20260509235932 | 28 | 271 | 3.2 | 6.4 | 0.00 | 0.00 | 0.00 | 100 | 1015.8 |
| 20260509235521 | 28 | 271 | 3.2 | 6.4 | 0.00 | 0.00 | 0.00 | 100 | 1015.8 |
| 20260509235021 | 28 | 268 | 3.2 | 8.0 | 0.00 | 0.00 | 0.00 | 100 | 1015.7 |
| 20260509234746 | 28 | 278 | 6.4 | 8.0 | 0.00 | 0.00 | 0.00 | 100 | 1015.6 |
| 20260509234521 | 28 | 277 | 3.2 | 9.7 | 0.00 | 0.00 | 0.00 | 100 | 1015.7 |
| 20260509234414 | 28 | 226 | 4.8 | 9.7 | 0.00 | 0.00 | 0.00 | 100 | 1015.5 |
| 20260509234021 | 28 | 278 | 6.4 | 8.0 | 0.00 | 0.00 | 0.00 | 100 | 1015.6 |
| 20260509233706 | 28 | 226 | 4.8 | 9.7 | 0.00 | 0.00 | 0.00 | 100 | 1015.5 |
| 20260509233521 | 28 | 226 | 4.8 | 9.7 | 0.00 | 0.00 | 0.00 | 100 | 1015.5 |
| 20260509233128 | 28 | 253 | 1.6 | 12.9 | 0.00 | 0.00 | 0.00 | 100 | 1015.5 |
| 20260509233021 | 28 | 253 | 1.6 | 12.9 | 0.00 | 0.00 | 0.00 | 100 | 1015.5 |
| 20260509232521 | 28 | 272 | 8.0 | 17.7 | 0.00 | 0.00 | 0.00 | 100 | 1015.5 |
| 20260509232021 | 28 | 237 | 1.6 | 12.9 | 0.00 | 0.00 | 0.00 | 100 | 1015.5 |
| 20260509231522 | 29 | 268 | 8.0 | 16.1 | 0.00 | 0.00 | 0.00 | 100 | 1015.4 |
| 20260509231514 | 29 | 279 | 4.8 | 16.1 | 0.00 | 0.00 | 0.00 | 100 | 1015.3 |
| 20260509231021 | 29 | 279 | 4.8 | 16.1 | 0.00 | 0.00 | 0.00 | 100 | 1015.3 |
| 20260509230521 | 29 | 240 | 9.7 | 12.9 | 0.00 | 0.00 | 0.00 | 100 | 1015.2 |
| 20260509230420 | 30 | 271 | 12.9 | 17.7 | 0.00 | 0.00 | 0.00 | 100 | 1015.1 |
| 20260509230210 | 30 | 271 | 12.9 | 17.7 | 0.00 | 0.00 | 0.00 | 100 | 1015.1 |
| 20260509230021 | 30 | 271 | 12.9 | 17.7 | 0.00 | 0.00 | 0.00 | 100 | 1015.1 |
| 20260509225521 | 30 | 262 | 14.5 | 16.1 | 0.00 | 0.00 | 0.00 | 100 | 1015.1 |
| 20260509225430 | 30 | 289 | 3.2 | 17.7 | 0.00 | 0.00 | 0.00 | 100 | 1015.0 |
| 20260509225021 | 30 | 289 | 3.2 | 17.7 | 0.00 | 0.00 | 0.00 | 100 | 1015.0 |
| 20260509224604 | 30 | 244 | 16.1 | 20.9 | 0.00 | 0.00 | 0.00 | 100 | 1015.0 |
| 20260509224521 | 30 | 244 | 16.1 | 20.9 | 0.00 | 0.00 | 0.00 | 100 | 1015.0 |
| 20260509224408 | 31 | 248 | 16.1 | 19.3 | 0.00 | 0.00 | 0.00 | 100 | 1015.0 |
| 20260509224149 | 30 | 187 | 1.6 | 16.1 | 0.00 | 0.00 | 0.00 | 100 | 1015.0 |
| 20260509224021 | 30 | 187 | 1.6 | 16.1 | 0.00 | 0.00 | 0.00 | 100 | 1015.0 |
| 20260509223522 | 30 | 223 | 16.1 | 20.9 | 0.00 | 0.00 | 0.00 | 100 | 1014.9 |
| 20260509223022 | 30 | 236 | 16.1 | 19.3 | 0.00 | 0.00 | 0.00 | 100 | 1015.0 |
| 20260509222622 | 31 | 248 | 16.1 | 19.3 | 0.00 | 0.00 | 0.00 | 100 | 1015.0 |
| 20260509222522 | 31 | 248 | 16.1 | 19.3 | 0.00 | 0.00 | 0.00 | 100 | 1015.0 |
| 20260509222149 | 31 | 244 | 3.2 | 17.7 | 0.00 | 0.00 | 0.00 | 100 | 1014.9 |
| 20260509222022 | 31 | 244 | 3.2 | 17.7 | 0.00 | 0.00 | 0.00 | 100 | 1014.9 |
| 20260509221634 | 31 | 281 | 14.5 | 17.7 | 0.00 | 0.00 | 0.00 | 100 | 1014.9 |
| 20260509221522 | 31 | 281 | 14.5 | 17.7 | 0.00 | 0.00 | 0.00 | 100 | 1014.9 |
| 20260509221150 | 31 | 240 | 16.1 | 17.7 | 0.00 | 0.00 | 0.00 | 100 | 1014.9 |
| 20260509221022 | 31 | 240 | 16.1 | 17.7 | 0.00 | 0.00 | 0.00 | 100 | 1014.9 |
| 20260509220522 | 31 | 251 | 9.7 | 20.9 | 0.00 | 0.00 | 0.00 | 100 | 1014.9 |
| 20260509220022 | 31 | 253 | 8.0 | 20.9 | 0.00 | 0.00 | 0.00 | 100 | 1014.8 |
| 20260509215522 | 31 | 254 | 8.0 | 22.5 | 0.00 | 0.00 | 0.00 | 100 | 1014.7 |
| 20260509215022 | 31 | 212 | 0.0 | 20.9 | 0.00 | 0.00 | 0.00 | 100 | 1014.7 |
| 20260509214522 | 32 | 215 | 9.7 | 17.7 | 0.00 | 0.00 | 0.00 | 100 | 1014.6 |
| 20260509214122 | 32 | 257 | 12.9 | 19.3 | 0.00 | 0.00 | 0.00 | 100 | 1014.6 |
| 20260509214022 | 32 | 257 | 12.9 | 19.3 | 0.00 | 0.00 | 0.00 | 100 | 1014.6 |
| 20260509213740 | 32 | 234 | 12.9 | 24.1 | 0.00 | 0.00 | 0.00 | 100 | 1014.6 |
| 20260509213703 | 32 | 234 | 12.9 | 24.1 | 0.00 | 0.00 | 0.00 | 100 | 1014.6 |
| 20260509213522 | 32 | 234 | 12.9 | 24.1 | 0.00 | 0.00 | 0.00 | 100 | 1014.6 |
| 20260509213118 | 32 | 244 | 20.9 | 24.1 | 0.00 | 0.00 | 0.00 | 100 | 1014.6 |
| 20260509213050 | 33 | 225 | 17.7 | 22.5 | 0.00 | 0.00 | 0.00 | 100 | 1014.5 |
| 20260509213022 | 32 | 244 | 20.9 | 24.1 | 0.00 | 0.00 | 0.00 | 100 | 1014.6 |
| 20260509212652 | 32 | 261 | 16.1 | 27.4 | 0.00 | 0.00 | 0.00 | 100 | 1014.6 |
| 20260509212522 | 32 | 261 | 16.1 | 27.4 | 0.00 | 0.00 | 0.00 | 100 | 1014.6 |
| 20260509212022 | 32 | 233 | 9.7 | 20.9 | 0.00 | 0.00 | 0.00 | 100 | 1014.5 |
| 20260509211639 | 32 | 267 | 17.7 | 25.7 | 0.00 | 0.00 | 0.00 | 100 | 1014.5 |
| 20260509211522 | 32 | 267 | 17.7 | 25.7 | 0.00 | 0.00 | 0.00 | 100 | 1014.5 |
| 20260509211022 | 32 | 202 | 14.5 | 27.4 | 0.00 | 0.00 | 0.00 | 100 | 1014.5 |
| 20260509210522 | 33 | 225 | 17.7 | 22.5 | 0.00 | 0.00 | 0.00 | 100 | 1014.5 |
| 20260509210236 | 33 | 267 | 14.5 | 24.1 | 0.00 | 0.00 | 0.00 | 100 | 1014.6 |
| 20260509210022 | 32 | 232 | 8.0 | 17.7 | 0.00 | 0.00 | 0.00 | 100 | 1014.5 |
| 20260509205652 | 33 | 271 | 16.1 | 25.7 | 0.00 | 0.00 | 0.00 | 100 | 1014.5 |
| 20260509205522 | 33 | 271 | 16.1 | 25.7 | 0.00 | 0.00 | 0.00 | 100 | 1014.5 |
| 20260509205022 | 33 | 270 | 9.7 | 22.5 | 0.00 | 0.00 | 0.00 | 100 | 1014.6 |
| 20260509204627 | 33 | 243 | 17.7 | 27.4 | 0.00 | 0.00 | 0.00 | 100 | 1014.6 |
| 20260509204522 | 33 | 243 | 17.7 | 27.4 | 0.00 | 0.00 | 0.00 | 100 | 1014.6 |
| 20260509204121 | 33 | 267 | 14.5 | 24.1 | 0.00 | 0.00 | 0.00 | 100 | 1014.6 |
| 20260509204022 | 33 | 267 | 14.5 | 24.1 | 0.00 | 0.00 | 0.00 | 100 | 1014.6 |
| 20260509203849 | 32 | 246 | 19.3 | 27.4 | 0.00 | 0.00 | 0.00 | 100 | 1014.7 |
| 20260509203647 | 32 | 246 | 19.3 | 27.4 | 0.00 | 0.00 | 0.00 | 100 | 1014.7 |
| 20260509203522 | 32 | 246 | 19.3 | 27.4 | 0.00 | 0.00 | 0.00 | 100 | 1014.7 |
| 20260509203137 | 33 | 205 | 17.7 | 22.5 | 0.00 | 0.00 | 0.00 | 100 | 1014.7 |
| 20260509203102 | 33 | 244 | 6.4 | 27.4 | 0.00 | 0.00 | 0.00 | 100 | 1014.6 |
| 20260509203022 | 33 | 205 | 17.7 | 22.5 | 0.00 | 0.00 | 0.00 | 100 | 1014.7 |
| 20260509202630 | 33 | 244 | 6.4 | 27.4 | 0.00 | 0.00 | 0.00 | 100 | 1014.6 |
| 20260509202523 | 33 | 244 | 6.4 | 27.4 | 0.00 | 0.00 | 0.00 | 100 | 1014.6 |
| 20260509202141 | 33 | 201 | 14.5 | 25.7 | 0.00 | 0.00 | 0.00 | 100 | 1014.7 |
| 20260509202022 | 33 | 201 | 14.5 | 25.7 | 0.00 | 0.00 | 0.00 | 100 | 1014.7 |
| 20260509201639 | 33 | 253 | 16.1 | 29.0 | 0.00 | 0.00 | 0.00 | 100 | 1014.7 |
| 20260509201522 | 33 | 253 | 16.1 | 29.0 | 0.00 | 0.00 | 0.00 | 100 | 1014.7 |
| 20260509201022 | 33 | 232 | 20.9 | 25.7 | 0.00 | 0.00 | 0.00 | 100 | 1014.8 |
| 20260509200522 | 33 | 251 | 17.7 | 27.4 | 0.00 | 0.00 | 0.00 | 100 | 1014.8 |
| 20260509200116 | 34 | 261 | 11.3 | 25.7 | 0.00 | 0.00 | 0.00 | 100 | 1014.7 |
| 20260509200022 | 34 | 261 | 11.3 | 25.7 | 0.00 | 0.00 | 0.00 | 100 | 1014.7 |
| 20260509195522 | 34 | 271 | 12.9 | 25.7 | 0.00 | 0.00 | 0.00 | 100 | 1014.9 |
| 20260509195236 | 34 | 251 | 12.9 | 29.0 | 0.00 | 0.00 | 0.00 | 100 | 1014.8 |
| 20260509195022 | 34 | 251 | 12.9 | 29.0 | 0.00 | 0.00 | 0.00 | 100 | 1014.8 |
| 20260509194522 | 34 | 279 | 9.7 | 29.0 | 0.00 | 0.00 | 0.00 | 100 | 1014.9 |
| 20260509194208 | 33 | 250 | 20.9 | 24.1 | 0.00 | 0.00 | 0.00 | 100 | 1015.1 |
| 20260509194022 | 33 | 250 | 20.9 | 24.1 | 0.00 | 0.00 | 0.00 | 100 | 1015.1 |
| 20260509193522 | 33 | 237 | 16.1 | 27.4 | 0.00 | 0.00 | 0.00 | 100 | 1015.1 |
| 20260509193249 | 33 | 248 | 19.3 | 27.4 | 0.00 | 0.00 | 0.00 | 100 | 1015.1 |
| 20260509193022 | 33 | 248 | 19.3 | 27.4 | 0.00 | 0.00 | 0.00 | 100 | 1015.1 |
| 20260509192654 | 33 | 255 | 14.5 | 24.1 | 0.00 | 0.00 | 0.00 | 100 | 1015.1 |
| 20260509192613 | 34 | 201 | 19.3 | 27.4 | 0.00 | 0.00 | 0.00 | 100 | 1015.1 |
| 20260509192522 | 33 | 255 | 14.5 | 24.1 | 0.00 | 0.00 | 0.00 | 100 | 1015.1 |
| 20260509192248 | 34 | 201 | 19.3 | 27.4 | 0.00 | 0.00 | 0.00 | 100 | 1015.1 |
| 20260509192022 | 34 | 201 | 19.3 | 27.4 | 0.00 | 0.00 | 0.00 | 100 | 1015.1 |
| 20260509191646 | 35 | 236 | 16.1 | 27.4 | 0.00 | 0.00 | 0.00 | 100 | 1015.2 |
| 20260509191522 | 35 | 236 | 16.1 | 27.4 | 0.00 | 0.00 | 0.00 | 100 | 1015.2 |
| 20260509191250 | 35 | 225 | 8.0 | 22.5 | 0.00 | 0.00 | 0.00 | 100 | 1015.3 |
| 20260509191022 | 35 | 225 | 8.0 | 22.5 | 0.00 | 0.00 | 0.00 | 100 | 1015.3 |
| 20260509190522 | 35 | 230 | 11.3 | 27.4 | 0.00 | 0.00 | 0.00 | 100 | 1015.4 |
| 20260509190324 | 34 | 246 | 11.3 | 30.6 | 0.00 | 0.00 | 0.00 | 100 | 1015.5 |
| 20260509190022 | 33 | 265 | 6.4 | 30.6 | 0.00 | 0.00 | 0.00 | 100 | 1015.6 |
| 20260509185749 | 33 | 319 | 8.0 | 29.0 | 0.00 | 0.00 | 0.00 | 100 | 1015.6 |
| 20260509185522 | 33 | 319 | 8.0 | 29.0 | 0.00 | 0.00 | 0.00 | 100 | 1015.6 |
| 20260509185251 | 34 | 225 | 9.7 | 20.9 | 0.00 | 0.00 | 0.00 | 100 | 1015.6 |
| 20260509185022 | 34 | 225 | 9.7 | 20.9 | 0.00 | 0.00 | 0.00 | 100 | 1015.6 |
| 20260509184657 | 34 | 246 | 11.3 | 30.6 | 0.00 | 0.00 | 0.00 | 100 | 1015.5 |
| 20260509184522 | 34 | 246 | 11.3 | 30.6 | 0.00 | 0.00 | 0.00 | 100 | 1015.5 |
| 20260509184239 | 34 | 153 | 11.3 | 29.0 | 0.00 | 0.00 | 0.00 | 100 | 1015.6 |
| 20260509184236 | 34 | 234 | 22.5 | 24.1 | 0.00 | 0.00 | 0.00 | 100 | 1015.5 |
| 20260509184234 | 35 | 247 | 14.5 | 22.5 | 0.00 | 0.00 | 0.00 | 100 | 1015.5 |
| 20260509184022 | 34 | 234 | 22.5 | 24.1 | 0.00 | 0.00 | 0.00 | 100 | 1015.5 |
| 20260509183522 | 34 | 274 | 12.9 | 30.6 | 0.00 | 0.00 | 0.00 | 100 | 1015.5 |
| 20260509183148 | 34 | 217 | 6.4 | 25.7 | 0.00 | 0.00 | 0.00 | 100 | 1015.6 |
| 20260509183022 | 34 | 217 | 6.4 | 25.7 | 0.00 | 0.00 | 0.00 | 100 | 1015.6 |
| 20260509182754 | 34 | 153 | 11.3 | 29.0 | 0.00 | 0.00 | 0.00 | 100 | 1015.6 |
| 20260509182522 | 34 | 153 | 11.3 | 29.0 | 0.00 | 0.00 | 0.00 | 100 | 1015.6 |
| 20260509182150 | 35 | 247 | 14.5 | 22.5 | 0.00 | 0.00 | 0.00 | 100 | 1015.5 |
| 20260509182022 | 35 | 247 | 14.5 | 22.5 | 0.00 | 0.00 | 0.00 | 100 | 1015.5 |
| 20260509181935 | 35 | 258 | 16.1 | 30.6 | 0.00 | 0.00 | 0.00 | 100 | 1015.6 |
| 20260509181631 | 35 | 258 | 16.1 | 30.6 | 0.00 | 0.00 | 0.00 | 100 | 1015.6 |
| 20260509181522 | 35 | 258 | 16.1 | 30.6 | 0.00 | 0.00 | 0.00 | 100 | 1015.6 |
| 20260509181244 | 33 | 195 | 11.3 | 25.7 | 0.00 | 0.00 | 0.00 | 100 | 1015.6 |
| 20260509181022 | 33 | 195 | 11.3 | 25.7 | 0.00 | 0.00 | 0.00 | 100 | 1015.6 |
| 20260509180643 | 34 | 234 | 12.9 | 22.5 | 0.00 | 0.00 | 0.00 | 100 | 1015.6 |
| 20260509180628 | 35 | 237 | 19.3 | 29.0 | 0.00 | 0.00 | 0.00 | 100 | 1015.5 |
| 20260509180548 | 35 | 257 | 12.9 | 24.1 | 0.00 | 0.00 | 0.00 | 100 | 1015.6 |
| 20260509180522 | 34 | 234 | 12.9 | 22.5 | 0.00 | 0.00 | 0.00 | 100 | 1015.6 |
| 20260509180022 | 35 | 237 | 19.3 | 29.0 | 0.00 | 0.00 | 0.00 | 100 | 1015.5 |
| 20260509175522 | 35 | 257 | 12.9 | 24.1 | 0.00 | 0.00 | 0.00 | 100 | 1015.6 |
| 20260509175149 | 35 | 253 | 14.5 | 25.7 | 0.00 | 0.00 | 0.00 | 100 | 1015.7 |
| 20260509175144 | 34 | 199 | 11.3 | 24.1 | 0.00 | 0.00 | 0.00 | 100 | 1015.7 |
| 20260509175022 | 35 | 253 | 14.5 | 25.7 | 0.00 | 0.00 | 0.00 | 100 | 1015.7 |
| 20260509174639 | 34 | 199 | 11.3 | 24.1 | 0.00 | 0.00 | 0.00 | 100 | 1015.7 |
| 20260509174523 | 34 | 199 | 11.3 | 24.1 | 0.00 | 0.00 | 0.00 | 100 | 1015.7 |
| 20260509174154 | 34 | 244 | 12.9 | 22.5 | 0.00 | 0.00 | 0.00 | 100 | 1015.8 |
| 20260509174148 | 33 | 232 | 12.9 | 22.5 | 0.00 | 0.00 | 0.00 | 100 | 1015.8 |
| 20260509174023 | 33 | 232 | 12.9 | 22.5 | 0.00 | 0.00 | 0.00 | 100 | 1015.8 |
| 20260509173523 | 34 | 213 | 16.1 | 22.5 | 0.00 | 0.00 | 0.00 | 100 | 1015.8 |
| 20260509173023 | 34 | 262 | 12.9 | 20.9 | 0.00 | 0.00 | 0.00 | 100 | 1015.8 |
| 20260509172737 | 34 | 244 | 12.9 | 22.5 | 0.00 | 0.00 | 0.00 | 100 | 1015.8 |
| 20260509172705 | 34 | 244 | 12.9 | 22.5 | 0.00 | 0.00 | 0.00 | 100 | 1015.8 |
| 20260509172523 | 34 | 244 | 12.9 | 22.5 | 0.00 | 0.00 | 0.00 | 100 | 1015.8 |
| 20260509172235 | 34 | 243 | 14.5 | 27.4 | 0.00 | 0.00 | 0.00 | 100 | 1015.7 |
| 20260509172023 | 34 | 243 | 14.5 | 27.4 | 0.00 | 0.00 | 0.00 | 100 | 1015.7 |
| 20260509171931 | 33 | 205 | 4.8 | 14.5 | 0.00 | 0.00 | 0.00 | 100 | 1015.8 |
| 20260509171630 | 34 | 281 | 6.4 | 20.9 | 0.00 | 0.00 | 0.00 | 100 | 1015.8 |
| 20260509171523 | 34 | 281 | 6.4 | 20.9 | 0.00 | 0.00 | 0.00 | 100 | 1015.8 |
| 20260509171236 | 33 | 205 | 4.8 | 14.5 | 0.00 | 0.00 | 0.00 | 100 | 1015.8 |
| 20260509171157 | 33 | 205 | 4.8 | 14.5 | 0.00 | 0.00 | 0.00 | 100 | 1015.8 |
| 20260509171023 | 33 | 205 | 4.8 | 14.5 | 0.00 | 0.00 | 0.00 | 100 | 1015.8 |
| 20260509170732 | 33 | 226 | 12.9 | 17.7 | 0.00 | 0.00 | 0.00 | 100 | 1016.0 |
| 20260509170656 | 33 | 226 | 12.9 | 17.7 | 0.00 | 0.00 | 0.00 | 100 | 1016.0 |
| 20260509170652 | 34 | 217 | 14.5 | 19.3 | 0.00 | 0.00 | 0.00 | 100 | 1015.9 |
| 20260509170523 | 33 | 226 | 12.9 | 17.7 | 0.00 | 0.00 | 0.00 | 100 | 1016.0 |
| 20260509170023 | 34 | 217 | 14.5 | 19.3 | 0.00 | 0.00 | 0.00 | 100 | 1015.9 |
| 20260509165523 | 34 | 277 | 9.7 | 20.9 | 0.00 | 0.00 | 0.00 | 100 | 1016.0 |
| 20260509165234 | 33 | 255 | 16.1 | 24.1 | 0.00 | 0.00 | 0.00 | 100 | 1016.1 |
| 20260509165023 | 33 | 255 | 16.1 | 24.1 | 0.00 | 0.00 | 0.00 | 100 | 1016.1 |
| 20260509164523 | 33 | 241 | 24.1 | 27.4 | 0.00 | 0.00 | 0.00 | 100 | 1016.2 |
| 20260509164256 | 33 | 246 | 8.0 | 22.5 | 0.00 | 0.00 | 0.00 | 100 | 1016.3 |
| 20260509164023 | 33 | 246 | 8.0 | 22.5 | 0.00 | 0.00 | 0.00 | 100 | 1016.3 |
| 20260509163523 | 32 | 237 | 11.3 | 19.3 | 0.00 | 0.00 | 0.00 | 100 | 1016.4 |
| 20260509163244 | 33 | 237 | 9.7 | 20.9 | 0.00 | 0.00 | 0.00 | 100 | 1016.3 |
| 20260509163238 | 33 | 206 | 12.9 | 25.7 | 0.00 | 0.00 | 0.00 | 100 | 1016.4 |
| 20260509163023 | 33 | 206 | 12.9 | 25.7 | 0.00 | 0.00 | 0.00 | 100 | 1016.4 |
| 20260509162650 | 33 | 237 | 9.7 | 20.9 | 0.00 | 0.00 | 0.00 | 100 | 1016.3 |
| 20260509162523 | 33 | 237 | 9.7 | 20.9 | 0.00 | 0.00 | 0.00 | 100 | 1016.3 |
| 20260509162144 | 32 | 184 | 8.0 | 25.7 | 0.00 | 0.00 | 0.00 | 100 | 1016.4 |
| 20260509162108 | 32 | 216 | 6.4 | 19.3 | 0.00 | 0.00 | 0.00 | 100 | 1016.5 |
| 20260509162023 | 32 | 184 | 8.0 | 25.7 | 0.00 | 0.00 | 0.00 | 100 | 1016.4 |
| 20260509161523 | 32 | 216 | 6.4 | 19.3 | 0.00 | 0.00 | 0.00 | 100 | 1016.5 |
| 20260509161203 | 33 | 246 | 14.5 | 17.7 | 0.00 | 0.00 | 0.00 | 100 | 1016.7 |
| 20260509161023 | 33 | 194 | 3.2 | 14.5 | 0.00 | 0.00 | 0.00 | 100 | 1016.6 |
| 20260509160523 | 33 | 246 | 14.5 | 17.7 | 0.00 | 0.00 | 0.00 | 100 | 1016.7 |
| 20260509160319 | 32 | 267 | 4.8 | 17.7 | 0.00 | 0.00 | 0.00 | 100 | 1016.7 |
| 20260509160023 | 32 | 206 | 8.0 | 19.3 | 0.00 | 0.00 | 0.00 | 100 | 1016.8 |
| 20260509155724 | 32 | 267 | 4.8 | 17.7 | 0.00 | 0.00 | 0.00 | 100 | 1016.7 |
| 20260509155523 | 32 | 267 | 4.8 | 17.7 | 0.00 | 0.00 | 0.00 | 100 | 1016.7 |
| 20260509155023 | 32 | 237 | 6.4 | 14.5 | 0.00 | 0.00 | 0.00 | 100 | 1016.8 |
| 20260509154735 | 31 | 206 | 12.9 | 14.5 | 0.00 | 0.00 | 0.00 | 100 | 1016.8 |
| 20260509154523 | 31 | 206 | 12.9 | 14.5 | 0.00 | 0.00 | 0.00 | 100 | 1016.8 |
| 20260509154235 | 31 | 149 | 6.4 | 14.5 | 0.00 | 0.00 | 0.00 | 100 | 1016.8 |
| 20260509154023 | 31 | 149 | 6.4 | 14.5 | 0.00 | 0.00 | 0.00 | 100 | 1016.8 |
| 20260509153726 | 31 | 158 | 4.8 | 17.7 | 0.00 | 0.00 | 0.00 | 100 | 1016.8 |
| 20260509153523 | 31 | 158 | 4.8 | 17.7 | 0.00 | 0.00 | 0.00 | 100 | 1016.8 |
| 20260509153023 | 32 | 234 | 4.8 | 12.9 | 0.00 | 0.00 | 0.00 | 100 | 1016.9 |
| 20260509152756 | 31 | 206 | 11.3 | 14.5 | 0.00 | 0.00 | 0.00 | 100 | 1016.9 |
| 20260509152523 | 31 | 206 | 11.3 | 14.5 | 0.00 | 0.00 | 0.00 | 100 | 1016.9 |
| 20260509152023 | 31 | 151 | 3.2 | 12.9 | 0.00 | 0.00 | 0.00 | 100 | 1017.1 |
| 20260509151651 | 30 | 181 | 8.0 | 11.3 | 0.00 | 0.00 | 0.00 | 100 | 1017.1 |
| 20260509151523 | 30 | 181 | 8.0 | 11.3 | 0.00 | 0.00 | 0.00 | 100 | 1017.1 |
| 20260509151149 | 30 | 203 | 6.4 | 12.9 | 0.00 | 0.00 | 0.00 | 100 | 1017.1 |
| 20260509151023 | 30 | 203 | 6.4 | 12.9 | 0.00 | 0.00 | 0.00 | 100 | 1017.1 |
| 20260509150813 | 31 | 237 | 6.4 | 11.3 | 0.00 | 0.00 | 0.00 | 100 | 1017.1 |
| 20260509150733 | 31 | 237 | 6.4 | 11.3 | 0.00 | 0.00 | 0.00 | 100 | 1017.1 |
| 20260509150523 | 31 | 237 | 6.4 | 11.3 | 0.00 | 0.00 | 0.00 | 100 | 1017.1 |
| 20260509150334 | 30 | 181 | 6.4 | 12.9 | 0.00 | 0.00 | 0.00 | 100 | 1017.3 |
| 20260509150330 | 30 | 137 | 1.6 | 12.9 | 0.00 | 0.00 | 0.00 | 100 | 1017.2 |
| 20260509150228 | 30 | 181 | 6.4 | 12.9 | 0.00 | 0.00 | 0.00 | 100 | 1017.3 |
| 20260509150023 | 30 | 181 | 6.4 | 12.9 | 0.00 | 0.00 | 0.00 | 100 | 1017.3 |
| 20260509145723 | 30 | 137 | 1.6 | 12.9 | 0.00 | 0.00 | 0.00 | 100 | 1017.2 |
| 20260509145523 | 30 | 137 | 1.6 | 12.9 | 0.00 | 0.00 | 0.00 | 100 | 1017.2 |
| 20260509145023 | 30 | 227 | 4.8 | 9.7 | 0.00 | 0.00 | 0.00 | 100 | 1017.3 |
| 20260509144736 | 30 | 184 | 6.4 | 9.7 | 0.00 | 0.00 | 0.00 | 100 | 1017.2 |
| 20260509144654 | 30 | 184 | 6.4 | 9.7 | 0.00 | 0.00 | 0.00 | 100 | 1017.2 |
| 20260509144523 | 30 | 184 | 6.4 | 9.7 | 0.00 | 0.00 | 0.00 | 100 | 1017.2 |
| 20260509144023 | 30 | 196 | 4.8 | 11.3 | 0.00 | 0.00 | 0.00 | 100 | 1017.1 |
| 20260509143900 | 30 | 230 | 4.8 | 11.3 | 0.00 | 0.00 | 0.00 | 100 | 1017.1 |
| 20260509143523 | 30 | 177 | 6.4 | 11.3 | 0.00 | 0.00 | 0.00 | 100 | 1017.0 |
| 20260509143023 | 30 | 230 | 4.8 | 11.3 | 0.00 | 0.00 | 0.00 | 100 | 1017.1 |
| 20260509142523 | 30 | 178 | 6.4 | 9.7 | 0.00 | 0.00 | 0.00 | 100 | 1017.0 |
| 20260509142248 | 29 | 181 | 4.8 | 9.7 | 0.00 | 0.00 | 0.00 | 100 | 1016.9 |
| 20260509142023 | 29 | 181 | 4.8 | 9.7 | 0.00 | 0.00 | 0.00 | 100 | 1016.9 |
| 20260509141732 | 30 | 163 | 1.6 | 9.7 | 0.00 | 0.00 | 0.00 | 100 | 1016.9 |
| 20260509141523 | 30 | 163 | 1.6 | 9.7 | 0.00 | 0.00 | 0.00 | 100 | 1016.9 |
| 20260509141111 | 28 | 170 | 4.8 | 11.3 | 0.00 | 0.00 | 0.00 | 100 | 1016.8 |
| 20260509141023 | 29 | 146 | 9.7 | 12.9 | 0.00 | 0.00 | 0.00 | 100 | 1016.8 |
| 20260509140523 | 28 | 170 | 4.8 | 11.3 | 0.00 | 0.00 | 0.00 | 100 | 1016.8 |
| 20260509140212 | 29 | 133 | 6.4 | 8.0 | 0.00 | 0.00 | 0.00 | 100 | 1016.6 |
| 20260509140023 | 29 | 144 | 9.7 | 9.7 | 0.00 | 0.00 | 0.00 | 100 | 1016.7 |
| 20260509135740 | 29 | 133 | 6.4 | 8.0 | 0.00 | 0.00 | 0.00 | 100 | 1016.6 |
| 20260509135523 | 29 | 133 | 6.4 | 8.0 | 0.00 | 0.00 | 0.00 | 100 | 1016.6 |
| 20260509135441 | 28 | 59 | 3.2 | 9.7 | 0.00 | 0.00 | 0.00 | 100 | 1016.7 |
| 20260509135023 | 28 | 59 | 3.2 | 9.7 | 0.00 | 0.00 | 0.00 | 100 | 1016.7 |
| 20260509134716 | 28 | 118 | 8.0 | 9.7 | 0.00 | 0.00 | 0.00 | 100 | 1016.8 |
| 20260509134524 | 28 | 118 | 8.0 | 9.7 | 0.00 | 0.00 | 0.00 | 100 | 1016.8 |
| 20260509134024 | 27 | 171 | 4.8 | 9.7 | 0.00 | 0.00 | 0.00 | 100 | 1016.7 |
| 20260509133722 | 27 | 56 | 3.2 | 9.7 | 0.00 | 0.00 | 0.00 | 100 | 1016.6 |
| 20260509133524 | 27 | 149 | 4.8 | 9.7 | 0.00 | 0.00 | 0.00 | 100 | 1016.6 |
| 20260509133024 | 27 | 56 | 3.2 | 9.7 | 0.00 | 0.00 | 0.00 | 100 | 1016.6 |
| 20260509132524 | 27 | 165 | 4.8 | 8.0 | 0.00 | 0.00 | 0.00 | 100 | 1016.6 |
| 20260509132500 | 27 | 126 | 3.2 | 9.7 | 0.00 | 0.00 | 0.00 | 100 | 1016.6 |
| 20260509132024 | 27 | 126 | 3.2 | 9.7 | 0.00 | 0.00 | 0.00 | 100 | 1016.6 |
| 20260509131524 | 28 | 92 | 6.4 | 9.7 | 0.00 | 0.00 | 0.00 | 100 | 1016.6 |
| 20260509131024 | 27 | 81 | 3.2 | 6.4 | 0.00 | 0.00 | 0.00 | 100 | 1016.6 |
| 20260509130524 | 27 | 21 | 0.0 | 0.0 | 0.00 | 0.00 | 0.00 | 100 | 1016.5 |
| 20260509130024 | 26 | 21 | 0.0 | 0.0 | 0.00 | 0.00 | 0.00 | 100 | 1016.5 |
| 20260509125617 | 26 | 21 | 0.0 | 0.0 | 0.00 | 0.00 | 0.00 | 100 | 1016.5 |
| 20260509125605 | 26 | 21 | 0.0 | 0.0 | 0.00 | 0.00 | 0.00 | 100 | 1016.5 |
| 20260509125524 | 26 | 21 | 0.0 | 0.0 | 0.00 | 0.00 | 0.00 | 100 | 1016.5 |
| 20260509125024 | 26 | 21 | 0.0 | 0.0 | 0.00 | 0.00 | 0.00 | 100 | 1016.5 |
| 20260509124747 | 26 | 21 | 0.0 | 0.0 | 0.00 | 0.00 | 0.00 | 100 | 1016.5 |
| 20260509124524 | 26 | 21 | 0.0 | 0.0 | 0.00 | 0.00 | 0.00 | 100 | 1016.5 |
| 20260509124024 | 26 | 21 | 0.0 | 0.0 | 0.00 | 0.00 | 0.00 | 100 | 1016.5 |
| 20260509123524 | 26 | 21 | 0.0 | 0.0 | 0.00 | 0.00 | 0.00 | 100 | 1016.5 |
| 20260509123259 | 27 | 21 | 0.0 | 0.0 | 0.00 | 0.00 | 0.00 | 100 | 1016.4 |
| 20260509123024 | 27 | 21 | 0.0 | 0.0 | 0.00 | 0.00 | 0.00 | 100 | 1016.4 |
| 20260509122809 | 27 | 21 | 0.0 | 0.0 | 0.00 | 0.00 | 0.00 | 100 | 1016.4 |
| 20260509122524 | 27 | 21 | 0.0 | 0.0 | 0.00 | 0.00 | 0.00 | 100 | 1016.4 |
| 20260509122024 | 26 | 21 | 0.0 | 0.0 | 0.00 | 0.00 | 0.00 | 100 | 1016.4 |
| 20260509121524 | 26 | 21 | 0.0 | 0.0 | 0.00 | 0.00 | 0.00 | 100 | 1016.3 |
| 20260509121024 | 26 | 21 | 0.0 | 0.0 | 0.00 | 0.00 | 0.00 | 100 | 1016.2 |
| 20260509120524 | 26 | 21 | 0.0 | 1.6 | 0.00 | 0.00 | 0.00 | 100 | 1016.0 |
| 20260509120024 | 25 | 71 | 0.0 | 0.0 | 0.00 | 0.00 | 0.00 | 100 | 1015.9 |
| 20260509115524 | 25 | 71 | 0.0 | 0.0 | 0.00 | 0.00 | 0.00 | 100 | 1016.0 |
| 20260509115024 | 24 | 71 | 0.0 | 0.0 | 0.00 | 0.00 | 0.00 | 100 | 1015.8 |
| 20260509114648 | 21 | 71 | 0.0 | 0.0 | 0.00 | 0.00 | 0.00 | 100 | 1015.8 |
| 20260509114524 | 23 | 71 | 0.0 | 0.0 | 0.00 | 0.00 | 0.00 | 100 | 1015.8 |
| 20260509114041 | 22 | 71 | 0.0 | 0.0 | 0.00 | 0.00 | 0.00 | 100 | 1015.8 |
| 20260509114024 | 23 | 71 | 0.0 | 0.0 | 0.00 | 0.00 | 0.00 | 100 | 1015.8 |
| 20260509113524 | 22 | 71 | 0.0 | 0.0 | 0.00 | 0.00 | 0.00 | 100 | 1015.8 |
| 20260509113024 | 22 | 71 | 0.0 | 0.0 | 0.00 | 0.00 | 0.00 | 100 | 1015.8 |
| 20260509112524 | 21 | 71 | 0.0 | 0.0 | 0.00 | 0.00 | 0.00 | 100 | 1015.8 |
| 20260509112501 | 20 | 71 | 0.0 | 0.0 | 0.00 | 0.00 | 0.00 | 100 | 1015.6 |
| 20260509112024 | 20 | 71 | 0.0 | 0.0 | 0.00 | 0.00 | 0.00 | 100 | 1015.7 |
| 20260509111813 | 20 | 71 | 0.0 | 0.0 | 0.00 | 0.00 | 0.00 | 100 | 1015.7 |
| 20260509111524 | 20 | 71 | 0.0 | 0.0 | 0.00 | 0.00 | 0.00 | 100 | 1015.7 |
| 20260509111024 | 20 | 71 | 0.0 | 0.0 | 0.00 | 0.00 | 0.00 | 100 | 1015.6 |
| 20260509110524 | 20 | 71 | 0.0 | 0.0 | 0.00 | 0.00 | 0.00 | 100 | 1015.6 |
| 20260509110145 | 19 | 71 | 0.0 | 0.0 | 0.00 | 0.00 | 0.00 | 100 | 1015.6 |
| 20260509110024 | 19 | 71 | 0.0 | 0.0 | 0.00 | 0.00 | 0.00 | 100 | 1015.6 |
| 20260509105524 | 19 | 71 | 0.0 | 0.0 | 0.00 | 0.00 | 0.00 | 100 | 1015.5 |
| 20260509105024 | 19 | 71 | 0.0 | 0.0 | 0.00 | 0.00 | 0.00 | 100 | 1015.6 |
| 20260509104524 | 19 | 71 | 0.0 | 0.0 | 0.00 | 0.00 | 0.00 | 100 | 1015.5 |
| 20260509104458 | 19 | 71 | 0.0 | 0.0 | 0.00 | 0.00 | 0.00 | 100 | 1015.5 |
| 20260509104024 | 19 | 71 | 0.0 | 0.0 | 0.00 | 0.00 | 0.00 | 100 | 1015.5 |
| 20260509103524 | 19 | 71 | 0.0 | 0.0 | 0.00 | 0.00 | 0.00 | 100 | 1015.4 |
| 20260509103225 | 19 | 71 | 0.0 | 0.0 | 0.00 | 0.00 | 0.00 | 100 | 1015.4 |
| 20260509103024 | 19 | 71 | 0.0 | 0.0 | 0.00 | 0.00 | 0.00 | 100 | 1015.4 |
| 20260509102727 | 20 | 71 | 0.0 | 0.0 | 0.00 | 0.00 | 0.00 | 100 | 1015.6 |
| 20260509102524 | 20 | 71 | 0.0 | 0.0 | 0.00 | 0.00 | 0.00 | 100 | 1015.5 |
| 20260509102024 | 20 | 71 | 0.0 | 0.0 | 0.00 | 0.00 | 0.00 | 100 | 1015.6 |
| 20260509101524 | 20 | 71 | 0.0 | 0.0 | 0.00 | 0.00 | 0.00 | 100 | 1015.6 |
| 20260509101024 | 20 | 71 | 0.0 | 0.0 | 0.00 | 0.00 | 0.00 | 100 | 1015.5 |
| 20260509100836 | 20 | 71 | 0.0 | 0.0 | 0.00 | 0.00 | 0.00 | 100 | 1015.6 |
| 20260509100524 | 20 | 71 | 0.0 | 0.0 | 0.00 | 0.00 | 0.00 | 100 | 1015.6 |
| 20260509100024 | 20 | 71 | 0.0 | 0.0 | 0.00 | 0.00 | 0.00 | 100 | 1015.6 |
| 20260509100019 | 20 | 71 | 0.0 | 0.0 | 0.00 | 0.00 | 0.00 | 100 | 1015.5 |
| 20260509095812 | 19 | 71 | 0.0 | 0.0 | 0.00 | 0.00 | 0.00 | 100 | 1015.6 |
| 20260509095524 | 19 | 71 | 0.0 | 0.0 | 0.00 | 0.00 | 0.00 | 100 | 1015.6 |
| 20260509095025 | 20 | 71 | 0.0 | 0.0 | 0.00 | 0.00 | 0.00 | 100 | 1015.5 |
| 20260509094525 | 20 | 71 | 0.0 | 0.0 | 0.00 | 0.00 | 0.00 | 100 | 1015.5 |
| 20260509094502 | 20 | 71 | 0.0 | 0.0 | 0.00 | 0.00 | 0.00 | 100 | 1015.5 |
| 20260509094025 | 20 | 71 | 0.0 | 0.0 | 0.00 | 0.00 | 0.00 | 100 | 1015.5 |
| 20260509093525 | 20 | 71 | 0.0 | 0.0 | 0.00 | 0.00 | 0.00 | 100 | 1015.5 |
| 20260509093025 | 20 | 71 | 0.0 | 0.0 | 0.00 | 0.00 | 0.00 | 100 | 1015.5 |
| 20260509092947 | 20 | 71 | 0.0 | 0.0 | 0.00 | 0.00 | 0.00 | 100 | 1015.5 |
| 20260509092854 | 20 | 71 | 0.0 | 0.0 | 0.00 | 0.00 | 0.00 | 100 | 1015.5 |
| 20260509092525 | 20 | 71 | 0.0 | 0.0 | 0.00 | 0.00 | 0.00 | 100 | 1015.5 |
| 20260509092025 | 20 | 71 | 0.0 | 0.0 | 0.00 | 0.00 | 0.00 | 100 | 1015.6 |
| 20260509091731 | 20 | 71 | 0.0 | 0.0 | 0.00 | 0.00 | 0.00 | 100 | 1015.7 |
| 20260509091525 | 20 | 71 | 0.0 | 0.0 | 0.00 | 0.00 | 0.00 | 100 | 1015.7 |
| 20260509091025 | 20 | 71 | 0.0 | 0.0 | 0.00 | 0.00 | 0.00 | 100 | 1015.7 |
| 20260509090525 | 20 | 71 | 0.0 | 0.0 | 0.00 | 0.00 | 0.00 | 100 | 1015.6 |
| 20260509090025 | 20 | 71 | 0.0 | 0.0 | 0.00 | 0.00 | 0.00 | 100 | 1015.6 |
| 20260509085525 | 20 | 71 | 0.0 | 0.0 | 0.00 | 0.00 | 0.00 | 100 | 1015.5 |
| 20260509085025 | 20 | 71 | 0.0 | 0.0 | 0.00 | 0.00 | 0.00 | 100 | 1015.7 |
| 20260509084525 | 20 | 71 | 0.0 | 0.0 | 0.00 | 0.00 | 0.00 | 100 | 1015.6 |
| 20260509084025 | 20 | 71 | 0.0 | 0.0 | 0.00 | 0.00 | 0.00 | 100 | 1015.6 |
| 20260509083525 | 20 | 71 | 0.0 | 0.0 | 0.00 | 0.00 | 0.00 | 100 | 1015.7 |
| 20260509083025 | 20 | 71 | 0.0 | 0.0 | 0.00 | 0.00 | 0.00 | 100 | 1015.6 |
| 20260509082525 | 20 | 71 | 0.0 | 0.0 | 0.00 | 0.00 | 0.00 | 100 | 1015.8 |
| 20260509082025 | 20 | 71 | 0.0 | 0.0 | 0.00 | 0.00 | 0.00 | 100 | 1015.8 |
| 20260509081525 | 20 | 71 | 0.0 | 0.0 | 0.00 | 0.00 | 0.00 | 100 | 1015.9 |
| 20260509081025 | 20 | 71 | 0.0 | 0.0 | 0.00 | 0.00 | 0.00 | 100 | 1015.9 |
| 20260509080721 | 20 | 71 | 0.0 | 0.0 | 0.00 | 0.00 | 0.00 | 100 | 1015.9 |
| 20260509080525 | 20 | 71 | 0.0 | 0.0 | 0.00 | 0.00 | 0.00 | 100 | 1015.9 |
| 20260509080025 | 20 | 71 | 0.0 | 0.0 | 0.00 | 0.00 | 0.00 | 100 | 1015.9 |
| 20260509075525 | 21 | 71 | 0.0 | 3.2 | 0.00 | 0.00 | 0.00 | 100 | 1016.1 |
| 20260509075025 | 20 | 19 | 0.0 | 0.0 | 0.00 | 0.00 | 0.00 | 100 | 1016.1 |
| 20260509074525 | 20 | 19 | 0.0 | 0.0 | 0.00 | 0.00 | 0.00 | 100 | 1016.1 |
| 20260509074025 | 21 | 19 | 0.0 | 0.0 | 0.00 | 0.00 | 0.00 | 100 | 1016.1 |
| 20260509073808 | 21 | 19 | 0.0 | 0.0 | 0.00 | 0.00 | 0.00 | 100 | 1016.2 |
| 20260509073525 | 21 | 19 | 0.0 | 0.0 | 0.00 | 0.00 | 0.00 | 100 | 1016.2 |
| 20260509073025 | 21 | 19 | 0.0 | 0.0 | 0.00 | 0.00 | 0.00 | 100 | 1016.2 |
| 20260509072525 | 21 | 19 | 0.0 | 0.0 | 0.00 | 0.00 | 0.00 | 100 | 1016.1 |
| 20260509072203 | 22 | 9 | 0.0 | 1.6 | 0.00 | 0.00 | 0.00 | 100 | 1016.4 |
| 20260509072025 | 22 | 19 | 0.0 | 0.0 | 0.00 | 0.00 | 0.00 | 100 | 1016.1 |
| 20260509071525 | 22 | 19 | 0.0 | 1.6 | 0.00 | 0.00 | 0.00 | 100 | 1016.3 |
| 20260509071025 | 22 | 9 | 0.0 | 0.0 | 0.00 | 0.00 | 0.00 | 100 | 1016.3 |
| 20260509070525 | 22 | 9 | 0.0 | 1.6 | 0.00 | 0.00 | 0.00 | 100 | 1016.4 |
| 20260509070025 | 22 | 9 | 1.6 | 6.4 | 0.00 | 0.00 | 0.00 | 100 | 1016.4 |
| 20260509065525 | 22 | 355 | 0.0 | 0.0 | 0.00 | 0.00 | 0.00 | 100 | 1016.5 |
| 20260509065353 | 22 | 355 | 0.0 | 0.0 | 0.00 | 0.00 | 0.00 | 100 | 1016.6 |
| 20260509065317 | 22 | 355 | 0.0 | 0.0 | 0.00 | 0.00 | 0.00 | 100 | 1016.6 |
| 20260509065028 | 21 | 355 | 0.0 | 4.8 | 0.00 | 0.00 | 0.00 | 100 | 1016.6 |
| 20260509065025 | 22 | 355 | 0.0 | 0.0 | 0.00 | 0.00 | 0.00 | 100 | 1016.6 |
| 20260509064745 | 21 | 355 | 0.0 | 4.8 | 0.00 | 0.00 | 0.00 | 100 | 1016.6 |
| 20260509064525 | 21 | 355 | 0.0 | 4.8 | 0.00 | 0.00 | 0.00 | 100 | 1016.6 |
| 20260509064255 | 21 | 45 | 0.0 | 0.0 | 0.00 | 0.00 | 0.00 | 100 | 1016.8 |
| 20260509064025 | 21 | 45 | 0.0 | 0.0 | 0.00 | 0.00 | 0.00 | 100 | 1016.6 |
| 20260509063815 | 21 | 45 | 0.0 | 0.0 | 0.00 | 0.00 | 0.00 | 100 | 1016.7 |
| 20260509063525 | 21 | 45 | 0.0 | 0.0 | 0.00 | 0.00 | 0.00 | 100 | 1016.7 |
| 20260509063218 | 21 | 45 | 0.0 | 0.0 | 0.00 | 0.00 | 0.00 | 100 | 1016.8 |
| 20260509063025 | 21 | 45 | 0.0 | 0.0 | 0.00 | 0.00 | 0.00 | 100 | 1016.8 |
| 20260509062525 | 21 | 45 | 0.0 | 0.0 | 0.00 | 0.00 | 0.00 | 100 | 1016.8 |
| 20260509062207 | 21 | 45 | 0.0 | 0.0 | 0.00 | 0.00 | 0.00 | 100 | 1017.0 |
| 20260509062025 | 21 | 45 | 0.0 | 0.0 | 0.00 | 0.00 | 0.00 | 100 | 1016.8 |
| 20260509061525 | 21 | 45 | 0.0 | 0.0 | 0.00 | 0.00 | 0.00 | 100 | 1017.0 |
| 20260509061025 | 21 | 45 | 0.0 | 0.0 | 0.00 | 0.00 | 0.00 | 100 | 1017.0 |
| 20260509060827 | 22 | 45 | 0.0 | 0.0 | 0.00 | 0.00 | 0.00 | 100 | 1017.0 |
| 20260509060525 | 22 | 45 | 0.0 | 0.0 | 0.00 | 0.00 | 0.00 | 100 | 1017.0 |
| 20260509060025 | 22 | 45 | 0.0 | 0.0 | 0.00 | 0.00 | 0.00 | 100 | 1017.0 |
| 20260509055716 | 22 | 45 | 0.0 | 0.0 | 0.00 | 0.00 | 0.00 | 100 | 1017.2 |
| 20260509055608 | 22 | 45 | 0.0 | 0.0 | 0.00 | 0.00 | 0.00 | 100 | 1017.2 |
| 20260509055530 | 22 | 45 | 0.0 | 0.0 | 0.00 | 0.00 | 0.00 | 100 | 1017.1 |
| 20260509055525 | 22 | 45 | 0.0 | 0.0 | 0.00 | 0.00 | 0.00 | 100 | 1017.2 |
| 20260509055331 | 22 | 45 | 0.0 | 0.0 | 0.00 | 0.00 | 0.00 | 100 | 1017.4 |
| 20260509055026 | 22 | 45 | 0.0 | 0.0 | 0.00 | 0.00 | 0.00 | 100 | 1017.1 |
| 20260509054803 | 22 | 45 | 0.0 | 0.0 | 0.00 | 0.00 | 0.00 | 100 | 1017.2 |
| 20260509054526 | 22 | 45 | 0.0 | 0.0 | 0.00 | 0.00 | 0.00 | 100 | 1017.2 |
| 20260509054026 | 22 | 45 | 0.0 | 0.0 | 0.00 | 0.00 | 0.00 | 100 | 1017.3 |
| 20260509053526 | 22 | 45 | 0.0 | 0.0 | 0.00 | 0.00 | 0.00 | 100 | 1017.4 |
| 20260509053026 | 23 | 45 | 0.0 | 0.0 | 0.00 | 0.00 | 0.00 | 100 | 1017.4 |
| 20260509052526 | 23 | 45 | 0.0 | 0.0 | 0.00 | 0.00 | 0.00 | 100 | 1017.4 |
| 20260509052158 | 23 | 45 | 0.0 | 0.0 | 0.00 | 0.00 | 0.00 | 100 | 1017.4 |
| 20260509052026 | 23 | 45 | 0.0 | 0.0 | 0.00 | 0.00 | 0.00 | 100 | 1017.4 |
| 20260509051526 | 23 | 45 | 0.0 | 0.0 | 0.00 | 0.00 | 0.00 | 100 | 1017.5 |
| 20260509051026 | 23 | 45 | 0.0 | 6.4 | 0.00 | 0.00 | 0.00 | 100 | 1017.5 |
| 20260509050526 | 23 | 53 | 1.6 | 3.2 | 0.00 | 0.00 | 0.00 | 100 | 1017.6 |
| 20260509050130 | 23 | 18 | 0.0 | 0.0 | 0.00 | 0.00 | 0.00 | 100 | 1017.6 |
| 20260509050026 | 23 | 18 | 0.0 | 0.0 | 0.00 | 0.00 | 0.00 | 100 | 1017.6 |
| 20260509045526 | 23 | 18 | 0.0 | 0.0 | 0.00 | 0.00 | 0.00 | 100 | 1017.6 |
| 20260509045130 | 23 | 18 | 0.0 | 0.0 | 0.00 | 0.00 | 0.00 | 100 | 1017.6 |
| 20260509045026 | 23 | 18 | 0.0 | 0.0 | 0.00 | 0.00 | 0.00 | 100 | 1017.6 |
| 20260509044652 | 23 | 18 | 0.0 | 1.6 | 0.00 | 0.00 | 0.00 | 100 | 1017.7 |
| 20260509044526 | 23 | 18 | 0.0 | 1.6 | 0.00 | 0.00 | 0.00 | 100 | 1017.7 |
| 20260509044026 | 23 | 21 | 0.0 | 4.8 | 0.00 | 0.00 | 0.00 | 100 | 1017.8 |
| 20260509043526 | 24 | 61 | 0.0 | 0.0 | 0.00 | 0.00 | 0.00 | 100 | 1017.9 |
| 20260509043026 | 24 | 61 | 0.0 | 6.4 | 0.00 | 0.00 | 0.00 | 100 | 1018.0 |
| 20260509042526 | 25 | 47 | 0.0 | 6.4 | 0.00 | 0.00 | 0.00 | 100 | 1018.0 |
| 20260509042215 | 24 | 68 | 4.8 | 8.0 | 0.00 | 0.00 | 0.00 | 100 | 1017.9 |
| 20260509042026 | 24 | 68 | 4.8 | 8.0 | 0.00 | 0.00 | 0.00 | 100 | 1017.9 |
| 20260509041526 | 25 | 88 | 4.8 | 6.4 | 0.00 | 0.00 | 0.00 | 100 | 1017.9 |
| 20260509041351 | 25 | 2 | 3.2 | 12.9 | 0.00 | 0.00 | 0.00 | 100 | 1017.7 |
| 20260509041026 | 25 | 18 | 0.0 | 6.4 | 0.00 | 0.00 | 0.00 | 100 | 1017.8 |
| 20260509040526 | 25 | 33 | 3.2 | 8.0 | 0.00 | 0.00 | 0.00 | 100 | 1017.7 |
| 20260509040026 | 25 | 2 | 3.2 | 12.9 | 0.00 | 0.00 | 0.00 | 100 | 1017.7 |
| 20260509035724 | 25 | 16 | 3.2 | 11.3 | 0.00 | 0.00 | 0.00 | 100 | 1017.6 |
| 20260509035526 | 25 | 16 | 3.2 | 11.3 | 0.00 | 0.00 | 0.00 | 100 | 1017.6 |
| 20260509035026 | 25 | 19 | 4.8 | 14.5 | 0.00 | 0.00 | 0.00 | 100 | 1017.7 |
| 20260509034526 | 25 | 358 | 11.3 | 12.9 | 0.00 | 0.00 | 0.00 | 100 | 1017.7 |
| 20260509034026 | 25 | 351 | 6.4 | 12.9 | 0.00 | 0.00 | 0.00 | 100 | 1017.7 |
| 20260509033802 | 25 | 340 | 6.4 | 14.5 | 0.00 | 0.00 | 0.00 | 100 | 1017.6 |
| 20260509033613 | 25 | 351 | 9.7 | 14.5 | 0.00 | 0.00 | 0.00 | 100 | 1017.6 |
| 20260509033526 | 25 | 340 | 6.4 | 14.5 | 0.00 | 0.00 | 0.00 | 100 | 1017.6 |
| 20260509033026 | 25 | 351 | 9.7 | 14.5 | 0.00 | 0.00 | 0.00 | 100 | 1017.6 |
| 20260509032526 | 25 | 29 | 1.6 | 16.1 | 0.00 | 0.00 | 0.00 | 100 | 1017.6 |
| 20260509032401 | 25 | 1 | 8.0 | 16.1 | 0.00 | 0.00 | 0.00 | 100 | 1017.5 |
| 20260509032026 | 25 | 1 | 8.0 | 16.1 | 0.00 | 0.00 | 0.00 | 100 | 1017.5 |
| 20260509031741 | 25 | 334 | 8.0 | 17.7 | 0.00 | 0.00 | 0.00 | 100 | 1017.6 |
| 20260509031526 | 25 | 334 | 8.0 | 17.7 | 0.00 | 0.00 | 0.00 | 100 | 1017.6 |
| 20260509031519 | 25 | 347 | 17.7 | 17.7 | 0.00 | 0.00 | 0.00 | 100 | 1017.6 |
| 20260509031026 | 25 | 347 | 17.7 | 17.7 | 0.00 | 0.00 | 0.00 | 100 | 1017.6 |
| 20260509030526 | 25 | 338 | 8.0 | 12.9 | 0.00 | 0.00 | 0.00 | 100 | 1017.6 |
| 20260509030026 | 25 | 7 | 4.8 | 12.9 | 0.00 | 0.00 | 0.00 | 100 | 1017.5 |
| 20260509025658 | 25 | 324 | 1.6 | 12.9 | 0.00 | 0.00 | 0.00 | 100 | 1017.3 |
| 20260509025526 | 25 | 25 | 1.6 | 14.5 | 0.00 | 0.00 | 0.00 | 100 | 1017.5 |
| 20260509025026 | 25 | 329 | 8.0 | 11.3 | 0.00 | 0.00 | 0.00 | 100 | 1017.5 |
| 20260509024526 | 25 | 16 | 0.0 | 11.3 | 0.00 | 0.00 | 0.00 | 100 | 1017.5 |
| 20260509024501 | 25 | 1 | 4.8 | 12.9 | 0.00 | 0.00 | 0.00 | 100 | 1017.5 |
| 20260509024026 | 25 | 1 | 4.8 | 12.9 | 0.00 | 0.00 | 0.00 | 100 | 1017.5 |
| 20260509023526 | 25 | 18 | 6.4 | 12.9 | 0.00 | 0.00 | 0.00 | 100 | 1017.4 |
| 20260509023026 | 25 | 324 | 1.6 | 12.9 | 0.00 | 0.00 | 0.00 | 100 | 1017.3 |
| 20260509022526 | 25 | 4 | 6.4 | 14.5 | 0.00 | 0.00 | 0.00 | 100 | 1017.2 |
| 20260509022026 | 25 | 338 | 6.4 | 12.9 | 0.00 | 0.00 | 0.00 | 100 | 1017.1 |
| 20260509021526 | 25 | 316 | 6.4 | 12.9 | 0.00 | 0.00 | 0.00 | 100 | 1017.0 |